Airfield :
LOGIN :

Register | Disclaimer

   EN    FR    IT 

 










Legend :    VFR   Marginal VFR   IFR   Intensive IFR   Very Intensive IFR
Visi :
Ceiling :
>= 8 km
>= 3000ft
5 to 8 km
1000 to 3000 ft
1500m to 5 km
500 to 1000 ft
800 to 1500m
200 to 500 ft
< 800m
< 200 ft
Symbols :   Thunderstorms  Fog  Heavy snow  Heavy precipitations  Wind > 20 kt
SIGMETs :     Misc.  Thunderstorms  Icing  Turbulence  Mountain Waves  Volcanic Ashes






- Airport Elevation : -11 ft
- IATA code : AMS


EHAM - Amsterdam Schiphol

CURRENT METAR :
  • 290955Z 15004KT 120V200 9999 FEW012 13/09 Q1002 NOSIG

EXPIRED METARs :
  • 290925Z 15004KT 110V190 9999 FEW015 12/10 Q1002 NOSIG
  • 290855Z 16003KT 110V210 9999 0700NW R18C/P2000U R27/P2000N R18R/0900N R06/P2000U BCFG BR FEW001 11/09 Q1002 BECMG 6000
  • 290825Z VRB02KT 8000 0100NW R18C/1400U R27/P2000N R18R/0250N R06/0650N BCFG BR SCT001 10/08 Q1001 NOSIG
  • 290755Z 16003KT 130V200 6000 0100NW R18C/0600U R27/P2000N R18R/0175N R06/1900N BCFG BR SCT001 08/08 Q1001 BECMG 8000
  • 290725Z 15003KT 1600 0100NW R18C/0350N R27/P2000N R18R/0200N R06/1000U BCFG SCT001 07/07 Q1001 BECMG 1800 BR

TAF TAF EHAM
Valid from the 29 at 06:00 until the 30 at 12:00 UTC


290429Z 2906/3012 18003KT 0700 FG SCT001
PROB40 2906/2908 0300 BKN001
BECMG 2908/2911 9999 NSW SCT025
BECMG 3000/3003 4000 BR MIFG
PROB30 3003/3008 1400 BCFG
BECMG 3008/3011 20012KT 9999 NSW



MET'MAP, your aeronautical weather chart ! - Copyright ORBIFLY December 2007 - Disclaimer

ORBIFLY MET'MAP TEAM :

Programming & Development : Alexandra Zaïnal
Original concept : Baudouin d'Aumeries
Technical & hardware support : Manuel Goepfert
Assistance : Marc-Olivier Méhu




SOURCES & CREDITS :

   NOAA